createdAt,value
2019-04-29T00:00:04.904Z,14.98
2019-04-29T00:02:35.599Z,12.78
2019-04-29T00:05:05.590Z,16.50
2019-04-29T00:07:34.562Z,11.18
2019-04-29T00:10:05.708Z,10.80
2019-04-29T00:12:34.632Z,10.25
2019-04-29T00:15:19.145Z,11.97
2019-04-29T00:18:00.707Z,13.98
2019-04-29T00:20:36.298Z,9.20
2019-04-29T00:23:05.319Z,12.37
2019-04-29T00:25:34.278Z,9.08
2019-04-29T00:28:03.174Z,11.75
2019-04-29T00:30:32.166Z,9.73
2019-04-29T00:33:01.089Z,10.85
2019-04-29T00:35:30.085Z,10.85
2019-04-29T00:38:13.762Z,14.18
2019-04-29T00:41:04.423Z,11.65
2019-04-29T00:43:49.943Z,11.03
2019-04-29T00:46:18.776Z,13.32
2019-04-29T00:48:47.718Z,12.80
2019-04-29T00:51:16.674Z,16.57
2019-04-29T00:53:46.399Z,12.88
2019-04-29T00:56:16.095Z,12.05
2019-04-29T00:58:44.961Z,10.10
2019-04-29T01:01:18.152Z,12.47
2019-04-29T01:03:47.047Z,12.95
2019-04-29T01:06:15.891Z,10.45
2019-04-29T01:08:44.767Z,13.98
2019-04-29T01:11:13.609Z,13.53
2019-04-29T01:13:42.551Z,11.93
2019-04-29T01:16:11.645Z,11.60
2019-04-29T01:18:40.466Z,12.33
2019-04-29T01:21:09.350Z,12.85
2019-04-29T01:23:38.170Z,11.75
2019-04-29T01:26:34.219Z,12.70
2019-04-29T01:29:03.990Z,10.90
2019-04-29T01:31:33.083Z,13.40
2019-04-29T01:34:11.183Z,12.73
2019-04-29T01:36:42.028Z,10.95
2019-04-29T01:39:12.583Z,14.07
2019-04-29T01:41:50.467Z,9.95
2019-04-29T01:44:19.391Z,13.38
2019-04-29T01:46:48.362Z,13.38
2019-04-29T01:49:17.192Z,10.50
2019-04-29T01:51:46.020Z,13.10
2019-04-29T01:54:14.846Z,10.32
2019-04-29T01:56:43.694Z,10.05
2019-04-29T01:59:12.750Z,9.40
2019-04-29T02:01:41.666Z,10.75
2019-04-29T02:04:10.645Z,8.98
2019-04-29T02:06:39.453Z,12.28
2019-04-29T02:09:11.679Z,9.90
2019-04-29T02:11:40.806Z,10.38
2019-04-29T02:14:09.635Z,12.05
2019-04-29T02:16:38.551Z,13.90
2019-04-29T02:19:07.346Z,13.40
2019-04-29T02:21:36.248Z,10.95
2019-04-29T02:24:12.959Z,11.97
2019-04-29T02:26:41.837Z,7.62
2019-04-29T02:29:10.730Z,12.65
2019-04-29T02:31:40.543Z,11.50
2019-04-29T02:34:09.456Z,15.05
2019-04-29T02:36:38.595Z,13.98
2019-04-29T02:39:17.509Z,12.15
2019-04-29T02:41:57.408Z,13.83
2019-04-29T02:44:26.381Z,18.70
2019-04-29T02:46:55.353Z,13.28
2019-04-29T02:49:24.473Z,21.07
2019-04-29T02:51:53.617Z,17.80
2019-04-29T02:54:23.766Z,18.32
2019-04-29T02:57:04.242Z,19.55
2019-04-29T02:59:37.767Z,21.87
2019-04-29T03:02:31.698Z,28.55
2019-04-29T03:05:14.242Z,19.37
2019-04-29T03:07:43.380Z,29.00
2019-04-29T03:10:12.596Z,24.25
2019-04-29T03:12:41.611Z,20.57
2019-04-29T03:15:11.071Z,23.40
2019-04-29T03:17:40.039Z,26.62
2019-04-29T03:20:14.943Z,25.57
2019-04-29T03:22:44.574Z,21.60
2019-04-29T03:25:13.709Z,22.07
2019-04-29T03:27:42.525Z,26.17
2019-04-29T03:30:16.959Z,19.27
2019-04-29T03:32:45.856Z,25.48
2019-04-29T03:35:14.975Z,24.55
2019-04-29T03:37:43.928Z,26.55
2019-04-29T03:40:13.726Z,23.07
2019-04-29T03:42:42.617Z,22.65
2019-04-29T03:45:11.860Z,23.65
2019-04-29T03:47:40.833Z,27.48
2019-04-29T03:50:09.864Z,27.05
2019-04-29T03:52:38.737Z,22.13
2019-04-29T03:55:07.709Z,25.57
2019-04-29T03:57:37.500Z,23.92
2019-04-29T04:00:06.723Z,23.87
2019-04-29T04:02:41.895Z,26.00
2019-04-29T04:05:32.964Z,23.65
2019-04-29T04:08:20.306Z,27.67
2019-04-29T04:10:49.158Z,24.43
2019-04-29T04:13:18.235Z,22.00
2019-04-29T04:15:47.229Z,25.32
2019-04-29T04:18:22.485Z,26.45
2019-04-29T04:20:52.135Z,28.25
2019-04-29T04:23:21.142Z,31.37
2019-04-29T04:25:50.342Z,25.82
2019-04-29T04:28:19.338Z,37.90
2019-04-29T04:30:48.805Z,31.17
2019-04-29T04:33:18.035Z,30.08
2019-04-29T04:35:47.080Z,28.87
2019-04-29T04:38:16.067Z,37.50
2019-04-29T04:41:00.077Z,34.03
2019-04-29T04:43:29.440Z,31.07
2019-04-29T04:45:58.460Z,32.93
2019-04-29T04:48:27.559Z,34.23
2019-04-29T04:50:56.490Z,33.73
2019-04-29T04:53:25.427Z,42.70
2019-04-29T04:55:56.646Z,39.75
2019-04-29T04:58:25.661Z,37.38
2019-04-29T05:00:54.607Z,43.98
2019-04-29T05:03:23.588Z,43.13
2019-04-29T05:05:52.647Z,43.40
2019-04-29T05:08:21.532Z,41.05
2019-04-29T05:10:50.967Z,44.08
2019-04-29T05:13:27.891Z,47.45
2019-04-29T05:15:51.159Z,51.55
2019-04-29T05:18:20.250Z,47.30
2019-04-29T05:20:49.243Z,48.38
2019-04-29T05:23:18.442Z,50.38
2019-04-29T05:25:47.556Z,57.27
2019-04-29T05:28:16.636Z,49.90
2019-04-29T05:30:45.622Z,55.00
2019-04-29T05:33:14.630Z,46.48
2019-04-29T05:35:56.711Z,50.43
2019-04-29T05:38:29.191Z,51.80
2019-04-29T05:40:58.346Z,51.00
2019-04-29T05:43:35.202Z,43.15
2019-04-29T05:46:10.196Z,47.90
2019-04-29T05:48:39.294Z,43.28
2019-04-29T05:51:29.233Z,43.08
2019-04-29T05:53:59.424Z,39.67
2019-04-29T05:56:28.477Z,42.70
2019-04-29T05:58:57.462Z,40.12
2019-04-29T06:01:27.930Z,43.40
2019-04-29T06:03:56.835Z,40.40
2019-04-29T06:06:25.675Z,45.45
2019-04-29T06:08:54.508Z,45.45
2019-04-29T06:11:23.515Z,53.60
2019-04-29T06:13:52.467Z,38.92
2019-04-29T06:16:22.742Z,42.93
2019-04-29T06:18:59.677Z,42.58
2019-04-29T06:21:22.554Z,46.28
2019-04-29T06:23:54.434Z,48.30
2019-04-29T06:26:22.411Z,45.60
2019-04-29T06:28:51.349Z,48.73
2019-04-29T06:31:21.416Z,42.45
2019-04-29T06:33:50.367Z,43.33
2019-04-29T06:36:19.415Z,41.60
2019-04-29T06:38:48.322Z,48.28
2019-04-29T06:41:17.368Z,50.78
2019-04-29T06:43:46.236Z,45.78
2019-04-29T06:46:15.060Z,46.60
2019-04-29T06:48:44.071Z,49.03
2019-04-29T06:51:13.004Z,44.63
2019-04-29T06:53:42.061Z,52.40
2019-04-29T06:56:11.871Z,51.80
2019-04-29T06:58:40.736Z,59.33
2019-04-29T07:01:09.603Z,49.90
2019-04-29T07:03:38.603Z,49.38
2019-04-29T07:06:07.826Z,52.80
2019-04-29T07:08:36.883Z,54.05
2019-04-29T07:11:06.825Z,50.52
2019-04-29T07:13:36.332Z,45.45
2019-04-29T07:16:05.522Z,47.62
2019-04-29T07:18:34.558Z,58.25
2019-04-29T07:21:07.518Z,53.15
2019-04-29T07:23:35.760Z,50.85
2019-04-29T07:26:04.859Z,46.02
2019-04-29T07:28:33.842Z,49.67
2019-04-29T07:31:03.303Z,49.48
2019-04-29T07:33:32.438Z,54.18
2019-04-29T07:36:10.743Z,48.20
2019-04-29T07:38:41.080Z,48.80
2019-04-29T07:41:04.041Z,50.17
2019-04-29T07:43:32.966Z,46.15
2019-04-29T07:46:16.504Z,42.30
2019-04-29T07:48:45.495Z,44.13
2019-04-29T07:51:14.641Z,41.30
2019-04-29T07:53:45.476Z,40.45
2019-04-29T07:56:15.503Z,40.95
2019-04-29T07:58:45.096Z,42.80
2019-04-29T08:01:14.275Z,37.78
2019-04-29T08:03:43.463Z,35.58
2019-04-29T08:06:12.832Z,38.00
2019-04-29T08:08:54.259Z,34.88
2019-04-29T08:11:13.161Z,35.10
2019-04-29T08:13:43.879Z,35.65
2019-04-29T08:19:04.817Z,35.65
2019-04-29T08:21:33.666Z,38.50
2019-04-29T08:24:22.536Z,34.27
2019-04-29T08:26:51.891Z,32.25
2019-04-29T08:29:21.016Z,34.30
2019-04-29T08:31:51.763Z,34.40
2019-04-29T08:34:29.174Z,30.90
2019-04-29T08:36:58.175Z,28.83
2019-04-29T08:39:29.349Z,27.73
2019-04-29T08:42:03.718Z,28.12
2019-04-29T08:44:43.051Z,24.18
2019-04-29T08:47:17.490Z,26.93
2019-04-29T08:49:46.832Z,23.00
2019-04-29T08:52:16.060Z,26.48
2019-04-29T08:54:45.124Z,26.15
2019-04-29T08:57:14.280Z,25.05
2019-04-29T08:59:49.764Z,23.15
2019-04-29T09:02:33.191Z,25.30
2019-04-29T09:04:54.024Z,26.42
2019-04-29T09:07:23.775Z,24.32
2019-04-29T09:09:56.157Z,22.95
2019-04-29T09:12:43.817Z,24.32
2019-04-29T09:15:13.836Z,23.60
2019-04-29T09:17:45.096Z,24.87
2019-04-29T09:20:17.893Z,24.25
2019-04-29T09:22:56.852Z,21.40
2019-04-29T09:26:01.702Z,22.58
2019-04-29T09:28:27.429Z,20.15
2019-04-29T09:30:51.174Z,20.35
2019-04-29T09:33:21.131Z,19.62
2019-04-29T09:35:51.050Z,18.20
2019-04-29T09:38:21.101Z,15.85
2019-04-29T09:40:59.706Z,18.15
2019-04-29T09:43:43.472Z,18.07
2019-04-29T09:46:18.608Z,19.12
2019-04-29T09:48:48.466Z,18.42
2019-04-29T09:51:22.192Z,18.60
2019-04-29T09:53:49.633Z,20.40
2019-04-29T09:56:22.405Z,20.35
2019-04-29T09:58:54.179Z,22.60
2019-04-29T10:01:30.823Z,19.90
2019-04-29T10:04:17.567Z,18.50
2019-04-29T10:06:48.809Z,23.20
2019-04-29T10:09:18.385Z,25.90
2019-04-29T10:11:47.723Z,26.05
2019-04-29T10:14:16.977Z,25.65
2019-04-29T10:16:58.787Z,22.15
2019-04-29T10:19:39.825Z,26.80
2019-04-29T10:22:09.306Z,28.45
2019-04-29T10:24:38.470Z,20.32
2019-04-29T10:27:07.904Z,25.20
2019-04-29T10:29:37.455Z,21.55
2019-04-29T10:32:08.646Z,24.12
2019-04-29T10:34:38.339Z,24.95
2019-04-29T10:37:08.902Z,24.30
2019-04-29T10:39:43.743Z,24.00
2019-04-29T10:42:14.292Z,27.17
2019-04-29T10:45:01.168Z,26.73
2019-04-29T10:48:03.551Z,28.75
2019-04-29T10:50:35.312Z,27.25
2019-04-29T10:53:10.989Z,26.48
2019-04-29T10:55:39.389Z,26.90
2019-04-29T10:58:08.839Z,24.43
2019-04-29T11:02:01.060Z,26.82
2019-04-29T11:04:24.179Z,25.25
2019-04-29T11:06:53.490Z,24.87
2019-04-29T11:09:32.677Z,27.82
2019-04-29T11:12:03.098Z,26.65
2019-04-29T11:14:33.175Z,22.35
2019-04-29T11:17:03.400Z,25.72
2019-04-29T11:19:35.021Z,30.17
2019-04-29T11:22:03.335Z,28.05
2019-04-29T11:24:52.931Z,27.07
2019-04-29T11:27:26.170Z,26.27
2019-04-29T11:29:58.471Z,28.42
2019-04-29T11:32:44.867Z,29.70
2019-04-29T11:35:39.198Z,27.02
2019-04-29T11:38:11.363Z,31.07
2019-04-29T11:40:43.912Z,27.37
2019-04-29T11:43:15.475Z,26.55
2019-04-29T11:45:44.510Z,25.02
2019-04-29T11:48:14.296Z,25.80
2019-04-29T11:50:52.949Z,25.27
2019-04-29T11:53:21.645Z,23.25
2019-04-29T11:55:52.663Z,25.23
2019-04-29T11:58:40.424Z,26.48
2019-04-29T12:01:40.069Z,23.75
2019-04-29T12:04:17.676Z,24.27
2019-04-29T12:06:46.745Z,25.75
2019-04-29T12:09:16.128Z,27.17
2019-04-29T12:11:46.192Z,27.98
2019-04-29T12:14:24.553Z,27.25
2019-04-29T12:17:03.758Z,24.82
2019-04-29T12:19:35.086Z,24.52
2019-04-29T12:22:08.889Z,25.95
2019-04-29T12:24:39.483Z,23.98
2019-04-29T12:27:10.427Z,26.70
2019-04-29T12:29:40.026Z,27.93
2019-04-29T12:32:27.450Z,27.93
2019-04-29T12:35:07.643Z,26.82
2019-04-29T12:38:15.356Z,25.27
2019-04-29T12:41:02.269Z,33.50
2019-04-29T12:43:39.533Z,23.52
2019-04-29T12:46:36.869Z,25.70
2019-04-29T12:49:08.575Z,27.48
2019-04-29T12:51:37.873Z,24.12
2019-04-29T12:54:07.111Z,25.00
2019-04-29T12:56:38.073Z,26.80
2019-04-29T12:59:10.343Z,24.00
2019-04-29T13:01:58.070Z,30.40
2019-04-29T13:04:45.093Z,24.98
2019-04-29T13:07:28.905Z,28.10
2019-04-29T13:10:02.153Z,23.42
2019-04-29T13:12:34.668Z,24.92
2019-04-29T13:15:14.137Z,27.32
2019-04-29T13:18:03.585Z,26.00
2019-04-29T13:20:28.511Z,24.57
2019-04-29T13:23:01.025Z,29.70
2019-04-29T13:25:28.757Z,25.02
2019-04-29T13:28:04.045Z,25.75
2019-04-29T13:30:33.538Z,25.10
2019-04-29T13:33:05.930Z,25.12
2019-04-29T13:35:33.254Z,25.02
2019-04-29T13:38:02.456Z,24.20
2019-04-29T13:40:32.941Z,22.42
2019-04-29T13:43:02.843Z,23.92
2019-04-29T13:45:41.370Z,20.90
2019-04-29T13:48:30.474Z,24.52
2019-04-29T13:51:04.379Z,23.25
2019-04-29T13:53:33.779Z,24.70
2019-04-29T13:56:11.573Z,20.60
2019-04-29T13:58:34.605Z,23.92
2019-04-29T14:01:24.658Z,20.48
2019-04-29T14:03:49.874Z,17.87
2019-04-29T14:06:19.930Z,15.78
2019-04-29T14:08:49.342Z,15.08
2019-04-29T14:11:21.950Z,14.38
2019-04-29T14:13:49.699Z,13.38
2019-04-29T14:16:19.433Z,16.82
2019-04-29T14:18:49.904Z,14.18
2019-04-29T14:21:19.697Z,13.65
2019-04-29T14:23:49.051Z,12.85
2019-04-29T14:26:18.443Z,14.85
2019-04-29T14:28:49.120Z,12.75
2019-04-29T14:31:22.432Z,15.72
2019-04-29T14:34:01.637Z,14.25
2019-04-29T14:36:31.087Z,14.45
2019-04-29T14:39:00.344Z,13.85
2019-04-29T14:41:31.436Z,14.93
2019-04-29T14:44:19.991Z,16.70
2019-04-29T14:47:08.103Z,16.40
2019-04-29T14:49:41.273Z,15.45
2019-04-29T14:52:13.233Z,12.15
2019-04-29T14:54:42.115Z,13.62
2019-04-29T14:57:12.254Z,13.90
2019-04-29T14:59:42.323Z,13.80
2019-04-29T15:02:19.213Z,13.75
2019-04-29T15:04:49.547Z,13.40
2019-04-29T15:07:19.034Z,15.40
2019-04-29T15:09:57.609Z,14.03
2019-04-29T15:13:06.735Z,10.45
2019-04-29T15:16:04.236Z,11.20
2019-04-29T15:18:57.624Z,13.72
2019-04-29T15:21:58.451Z,11.70
2019-04-29T15:24:32.696Z,10.82
2019-04-29T15:27:02.905Z,12.88
2019-04-29T15:29:34.942Z,11.43
2019-04-29T15:34:54.937Z,12.00
2019-04-29T15:37:28.126Z,11.63
2019-04-29T15:39:58.416Z,15.70
2019-04-29T15:42:28.588Z,13.90
2019-04-29T15:45:00.301Z,11.33
2019-04-29T15:47:31.483Z,11.48
2019-04-29T15:50:03.620Z,13.72
2019-04-29T15:52:32.981Z,13.25
2019-04-29T15:55:04.785Z,11.60
2019-04-29T15:57:34.389Z,12.63
2019-04-29T16:00:20.743Z,15.32
2019-04-29T16:02:40.231Z,10.70
2019-04-29T16:05:25.224Z,12.00
2019-04-29T16:08:13.113Z,11.50
2019-04-29T16:11:11.256Z,9.43
2019-04-29T16:13:41.123Z,10.38
2019-04-29T16:16:10.220Z,14.07
2019-04-29T16:18:39.918Z,10.63
2019-04-29T16:21:08.932Z,10.58
2019-04-29T16:23:38.564Z,15.65
2019-04-29T16:26:09.315Z,8.48
2019-04-29T16:28:40.179Z,10.45
2019-04-29T16:31:12.183Z,8.05
2019-04-29T16:33:39.899Z,7.35
2019-04-29T16:36:08.954Z,7.70
2019-04-29T16:38:37.990Z,11.53
2019-04-29T16:41:26.819Z,7.45
2019-04-29T16:43:56.420Z,6.90
2019-04-29T16:46:37.307Z,8.70
2019-04-29T16:49:02.456Z,6.72
2019-04-29T16:51:31.774Z,6.45
2019-04-29T16:54:00.902Z,7.78
2019-04-29T16:56:29.888Z,7.10
2019-04-29T16:58:59.026Z,7.00
2019-04-29T17:01:28.559Z,6.67
2019-04-29T17:04:04.860Z,12.23
2019-04-29T17:06:28.614Z,4.78
2019-04-29T17:09:23.380Z,6.20
2019-04-29T17:11:56.134Z,6.40
2019-04-29T17:14:24.264Z,7.62
2019-04-29T17:16:53.410Z,6.30
2019-04-29T17:19:22.496Z,9.98
2019-04-29T17:21:51.620Z,7.17
2019-04-29T17:24:20.573Z,5.62
2019-04-29T17:27:07.094Z,7.05
2019-04-29T17:30:10.691Z,5.22
2019-04-29T17:32:56.372Z,5.35
2019-04-29T17:35:27.838Z,5.80
2019-04-29T17:37:57.011Z,5.58
2019-04-29T17:40:27.609Z,9.35
2019-04-29T17:43:09.141Z,6.58
2019-04-29T17:45:46.562Z,5.47
2019-04-29T17:48:25.428Z,5.10
2019-04-29T17:50:57.920Z,5.17
2019-04-29T17:53:31.153Z,6.35
2019-04-29T17:56:17.237Z,4.87
2019-04-29T17:58:51.725Z,4.10
2019-04-29T18:01:42.568Z,5.65
2019-04-29T18:04:31.870Z,6.80
2019-04-29T18:07:18.373Z,9.70
2019-04-29T18:10:06.477Z,6.12
2019-04-29T18:12:40.932Z,7.15
2019-04-29T18:15:06.258Z,3.30
2019-04-29T18:17:36.220Z,6.55
2019-04-29T18:20:17.648Z,4.65
2019-04-29T18:23:20.921Z,5.00
2019-04-29T18:26:14.836Z,3.55
2019-04-29T18:28:45.778Z,3.67
2019-04-29T18:31:14.754Z,4.40
2019-04-29T18:33:45.093Z,3.75
2019-04-29T18:36:21.972Z,4.10
2019-04-29T18:38:48.708Z,4.40
2019-04-29T18:41:24.251Z,2.87
2019-04-29T18:43:46.289Z,3.83
2019-04-29T18:46:16.699Z,8.18
2019-04-29T18:48:45.760Z,2.92
2019-04-29T18:51:15.385Z,6.22
2019-04-29T18:53:44.338Z,4.05
2019-04-29T18:56:14.779Z,4.00
2019-04-29T18:58:46.837Z,5.03
2019-04-29T19:01:14.996Z,4.90
2019-04-29T19:04:04.786Z,3.80
2019-04-29T19:06:33.581Z,4.80
2019-04-29T19:09:02.873Z,3.85
2019-04-29T19:11:32.780Z,3.30
2019-04-29T19:14:01.855Z,5.10
2019-04-29T19:16:30.702Z,5.55
2019-04-29T19:19:01.739Z,5.30
2019-04-29T19:21:31.759Z,7.62
2019-04-29T19:24:01.702Z,3.62
2019-04-29T19:26:31.265Z,5.70
2019-04-29T19:29:01.298Z,5.17
2019-04-29T19:31:31.332Z,3.35
2019-04-29T19:34:00.379Z,7.55
2019-04-29T19:36:29.563Z,3.75
2019-04-29T19:38:58.497Z,3.25
2019-04-29T19:41:27.682Z,7.42
2019-04-29T19:43:56.798Z,3.30
2019-04-29T19:46:36.861Z,3.98
2019-04-29T19:48:58.299Z,5.08
2019-04-29T19:51:27.331Z,6.95
2019-04-29T19:53:56.319Z,5.08
2019-04-29T19:56:27.102Z,5.28
2019-04-29T19:58:57.873Z,5.90
2019-04-29T20:01:32.093Z,3.60
2019-04-29T20:04:22.264Z,7.45
2019-04-29T20:06:49.459Z,6.00
2019-04-29T20:09:22.714Z,3.40
2019-04-29T20:11:51.940Z,4.20
2019-04-29T20:14:27.326Z,4.08
2019-04-29T20:17:13.968Z,3.98
2019-04-29T20:19:50.753Z,3.90
2019-04-29T20:22:18.453Z,3.77
2019-04-29T20:24:50.629Z,6.78
2019-04-29T20:27:20.545Z,9.40
2019-04-29T20:29:49.004Z,5.58
2019-04-29T20:32:22.428Z,6.55
2019-04-29T20:34:48.705Z,7.55
2019-04-29T20:37:19.788Z,7.92
2019-04-29T20:39:51.913Z,7.85
2019-04-29T20:42:19.027Z,8.68
2019-04-29T20:44:49.393Z,7.20
2019-04-29T20:47:23.106Z,6.58
2019-04-29T20:49:50.843Z,3.83
2019-04-29T20:52:39.040Z,4.45
2019-04-29T20:55:09.559Z,3.22
2019-04-29T20:57:38.977Z,4.37
2019-04-29T21:00:09.075Z,3.65
2019-04-29T21:02:38.272Z,4.37
2019-04-29T21:05:09.829Z,6.62
2019-04-29T21:07:38.281Z,9.48
2019-04-29T21:10:08.570Z,7.12
2019-04-29T21:12:55.781Z,4.58
2019-04-29T21:15:52.309Z,4.20
2019-04-29T21:18:20.098Z,4.30
2019-04-29T21:20:49.151Z,3.30
2019-04-29T21:23:18.368Z,5.97
2019-04-29T21:25:47.457Z,2.90
2019-04-29T21:28:16.758Z,3.90
2019-04-29T21:30:45.899Z,3.30
2019-04-29T21:33:20.998Z,6.20
2019-04-29T21:35:57.892Z,3.98
2019-04-29T21:38:45.077Z,5.20
2019-04-29T21:41:20.146Z,3.47
2019-04-29T21:43:53.555Z,4.00
2019-04-29T21:46:27.805Z,3.80
2019-04-29T21:48:51.558Z,5.17
2019-04-29T21:51:20.499Z,3.75
2019-04-29T21:53:49.418Z,2.77
2019-04-29T21:56:18.328Z,3.77
2019-04-29T21:58:47.348Z,5.62
2019-04-29T22:01:16.694Z,5.28
2019-04-29T22:03:45.706Z,3.10
2019-04-29T22:06:14.728Z,3.35
2019-04-29T22:08:45.304Z,3.65
2019-04-29T22:11:15.550Z,4.80
2019-04-29T22:13:45.358Z,3.72
2019-04-29T22:16:15.946Z,6.40
2019-04-29T22:18:51.763Z,3.25
2019-04-29T22:21:21.936Z,4.78
2019-04-29T22:23:51.000Z,6.00
2019-04-29T22:26:23.023Z,4.42
2019-04-29T22:28:49.023Z,3.85
2019-04-29T22:31:18.656Z,3.50
2019-04-29T22:33:48.911Z,3.40
2019-04-29T22:36:18.402Z,5.53
2019-04-29T22:38:48.707Z,3.70
2019-04-29T22:41:31.745Z,3.77
2019-04-29T22:44:04.911Z,3.30
2019-04-29T22:46:35.646Z,3.10
2019-04-29T22:49:05.868Z,6.22
2019-04-29T22:51:35.527Z,4.50
2019-04-29T22:54:04.806Z,4.55
2019-04-29T22:56:35.964Z,3.00
2019-04-29T22:59:05.749Z,9.73
2019-04-29T23:01:36.374Z,6.47
2019-04-29T23:04:09.559Z,3.75
2019-04-29T23:06:39.828Z,3.95
2019-04-29T23:09:07.701Z,5.50
2019-04-29T23:11:39.441Z,5.10
2019-04-29T23:14:10.034Z,7.25
2019-04-29T23:16:39.140Z,4.60
2019-04-29T23:19:09.824Z,3.05
2019-04-29T23:22:10.619Z,3.70
2019-04-29T23:25:10.586Z,3.83
2019-04-29T23:27:39.514Z,5.60
2019-04-29T23:30:08.727Z,7.10
2019-04-29T23:32:39.391Z,3.90
2019-04-29T23:35:10.050Z,4.65
2019-04-29T23:37:39.054Z,3.67
2019-04-29T23:40:08.216Z,6.85
2019-04-29T23:42:37.125Z,4.58
2019-04-29T23:45:07.238Z,3.85
2019-04-29T23:47:36.109Z,3.62
2019-04-29T23:50:05.471Z,4.17
2019-04-29T23:52:35.917Z,4.22
2019-04-29T23:55:07.771Z,4.53
2019-04-29T23:57:45.986Z,4.87
